Wallingford, Connecticut
Current Conditions -  °F | °C
As of 8:53 PM on Friday 19 Dec 2014 (Local Time) from KMMK Reporting Station
Clear Clear  
Wind Chill: 22°   Ceiling: Unl
Heat Index: 30°   Visibility: 10mi
Dew Point: 19°   Wind: 9mph
Humidity: 64%   Direction: 320°NW
Pressure: 30.13"   Gusts: NA
Location:  41.46°N, 72.82°W
Report Text: KMMK 200153Z AUTO 32008KT 10SM CLR M01/M07 A3013 RMK AO2 SLP203 T10111072 TSNO
Loading
Personal Weather Stations






























Interactive Weather Map New forecast layout! Learn more

10-Day Weather Forecast

Advertisements
Track Severe Weather on mobile